sensor_id;sensor_type;location;lat;lon;timestamp;pressure;altitude;pressure_sealevel;temperature;humidity
46782;BME280;32541;46.298;11.506;2023-04-06T00:00:59;89407.16;;;0.21;66.32
46782;BME280;32541;46.298;11.506;2023-04-06T00:03:25;89416.13;;;0.16;66.68
46782;BME280;32541;46.298;11.506;2023-04-06T00:05:50;89412.97;;;0.12;66.94
46782;BME280;32541;46.298;11.506;2023-04-06T00:08:16;89414.66;;;0.15;67.04
46782;BME280;32541;46.298;11.506;2023-04-06T00:10:41;89411.75;;;0.39;65.97
46782;BME280;32541;46.298;11.506;2023-04-06T00:13:07;89418.84;;;0.29;66.41
46782;BME280;32541;46.298;11.506;2023-04-06T00:15:34;89413.75;;;0.26;66.64
46782;BME280;32541;46.298;11.506;2023-04-06T00:18:00;89411.34;;;0.22;67.87
46782;BME280;32541;46.298;11.506;2023-04-06T00:20:25;89410.09;;;0.23;67.98
46782;BME280;32541;46.298;11.506;2023-04-06T00:22:50;89407.81;;;0.27;67.96
46782;BME280;32541;46.298;11.506;2023-04-06T00:25:16;89411.44;;;0.30;67.37
46782;BME280;32541;46.298;11.506;2023-04-06T00:27:42;89412.47;;;0.27;67.72
46782;BME280;32541;46.298;11.506;2023-04-06T00:30:08;89413.94;;;0.28;68.36
46782;BME280;32541;46.298;11.506;2023-04-06T00:32:34;89412.19;;;0.30;68.42
46782;BME280;32541;46.298;11.506;2023-04-06T00:35:02;89404.59;;;0.29;68.09
46782;BME280;32541;46.298;11.506;2023-04-06T00:37:27;89412.69;;;0.42;67.85
46782;BME280;32541;46.298;11.506;2023-04-06T00:39:53;89397.13;;;0.35;67.84
46782;BME280;32541;46.298;11.506;2023-04-06T00:42:19;89408.53;;;0.28;67.31
46782;BME280;32541;46.298;11.506;2023-04-06T00:44:55;89412.06;;;0.23;67.88
46782;BME280;32541;46.298;11.506;2023-04-06T00:47:21;89413.75;;;0.26;67.43
46782;BME280;32541;46.298;11.506;2023-04-06T00:49:47;89404.59;;;0.29;67.50
46782;BME280;32541;46.298;11.506;2023-04-06T00:52:13;89406.38;;;0.26;68.23
46782;BME280;32541;46.298;11.506;2023-04-06T00:54:38;89410.00;;;0.29;67.89
46782;BME280;32541;46.298;11.506;2023-04-06T00:57:03;89398.53;;;0.36;67.85
46782;BME280;32541;46.298;11.506;2023-04-06T00:59:29;89402.72;;;0.37;67.65
46782;BME280;32541;46.298;11.506;2023-04-06T01:01:55;89393.56;;;0.40;67.87
46782;BME280;32541;46.298;11.506;2023-04-06T01:04:21;89392.09;;;0.39;68.54
46782;BME280;32541;46.298;11.506;2023-04-06T01:06:48;89396.47;;;0.42;67.79
46782;BME280;32541;46.298;11.506;2023-04-06T01:09:14;89386.91;;;0.41;67.63
46782;BME280;32541;46.298;11.506;2023-04-06T01:11:39;89387.53;;;0.34;68.21
46782;BME280;32541;46.298;11.506;2023-04-06T01:14:05;89390.25;;;0.34;67.85
46782;BME280;32541;46.298;11.506;2023-04-06T01:16:30;89393.56;;;0.40;67.31
46782;BME280;32541;46.298;11.506;2023-04-06T01:18:56;89393.25;;;0.43;67.04
46782;BME280;32541;46.298;11.506;2023-04-06T01:21:21;89398.34;;;0.34;67.35
46782;BME280;32541;46.298;11.506;2023-04-06T01:23:47;89391.59;;;0.27;68.10
46782;BME280;32541;46.298;11.506;2023-04-06T01:26:13;89390.44;;;0.23;68.74
46782;BME280;32541;46.298;11.506;2023-04-06T01:28:39;89395.84;;;0.23;68.85
46782;BME280;32541;46.298;11.506;2023-04-06T01:31:08;89393.25;;;0.17;69.36
46782;BME280;32541;46.298;11.506;2023-04-06T01:33:34;89383.34;;;0.07;69.23
46782;BME280;32541;46.298;11.506;2023-04-06T01:35:59;89391.47;;;0.20;68.32
46782;BME280;32541;46.298;11.506;2023-04-06T01:38:25;89387.34;;;0.32;68.08
46782;BME280;32541;46.298;11.506;2023-04-06T01:40:51;89390.31;;;0.15;68.01
46782;BME280;32541;46.298;11.506;2023-04-06T01:43:17;89385.44;;;0.14;67.40
46782;BME280;32541;46.298;11.506;2023-04-06T01:45:42;89383.38;;;0.20;67.95
46782;BME280;32541;46.298;11.506;2023-04-06T01:48:08;89382.53;;;0.25;67.48
46782;BME280;32541;46.298;11.506;2023-04-06T01:50:33;89379.91;;;0.06;67.61
46782;BME280;32541;46.298;11.506;2023-04-06T01:52:58;89387.81;;;-0.09;68.10
46782;BME280;32541;46.298;11.506;2023-04-06T01:55:24;89391.22;;;-0.09;67.53
46782;BME280;32541;46.298;11.506;2023-04-06T01:57:49;89384.78;;;-0.19;67.89
46782;BME280;32541;46.298;11.506;2023-04-06T02:00:15;89384.16;;;-0.12;67.36
46782;BME280;32541;46.298;11.506;2023-04-06T02:02:41;89381.25;;;-0.27;67.40
46782;BME280;32541;46.298;11.506;2023-04-06T02:05:07;89387.13;;;-0.28;67.71
46782;BME280;32541;46.298;11.506;2023-04-06T02:07:33;89390.38;;;-0.17;67.44
46782;BME280;32541;46.298;11.506;2023-04-06T02:09:58;89394.81;;;-0.32;68.18
46782;BME280;32541;46.298;11.506;2023-04-06T02:12:24;89387.19;;;-0.47;68.51
46782;BME280;32541;46.298;11.506;2023-04-06T02:14:49;89399.16;;;-0.42;67.91
46782;BME280;32541;46.298;11.506;2023-04-06T02:17:15;89397.59;;;-0.38;68.08
46782;BME280;32541;46.298;11.506;2023-04-06T02:19:40;89390.72;;;-0.52;68.30
46782;BME280;32541;46.298;11.506;2023-04-06T02:22:06;89393.22;;;-0.54;68.51
46782;BME280;32541;46.298;11.506;2023-04-06T02:24:31;89400.03;;;-0.53;68.46
46782;BME280;32541;46.298;11.506;2023-04-06T02:26:57;89398.69;;;-0.60;68.59
46782;BME280;32541;46.298;11.506;2023-04-06T02:29:23;89400.81;;;-0.71;68.80
46782;BME280;32541;46.298;11.506;2023-04-06T02:31:48;89391.91;;;-0.66;68.71
46782;BME280;32541;46.298;11.506;2023-04-06T02:34:13;89396.66;;;-0.72;69.39
46782;BME280;32541;46.298;11.506;2023-04-06T02:36:46;89393.03;;;-0.75;69.14
46782;BME280;32541;46.298;11.506;2023-04-06T02:39:12;89395.56;;;-0.82;69.64
46782;BME280;32541;46.298;11.506;2023-04-06T02:41:39;89394.28;;;-0.94;70.06
46782;BME280;32541;46.298;11.506;2023-04-06T02:44:08;89386.78;;;-1.01;69.93
46782;BME280;32541;46.298;11.506;2023-04-06T02:46:34;89389.78;;;-1.05;70.19
46782;BME280;32541;46.298;11.506;2023-04-06T02:48:59;89384.38;;;-1.05;70.80
46782;BME280;32541;46.298;11.506;2023-04-06T02:51:26;89382.91;;;-1.06;70.31
46782;BME280;32541;46.298;11.506;2023-04-06T02:53:52;89387.28;;;-1.22;71.47
46782;BME280;32541;46.298;11.506;2023-04-06T02:56:17;89392.47;;;-1.24;71.42
46782;BME280;32541;46.298;11.506;2023-04-06T02:58:42;89387.44;;;-1.14;71.21
46782;BME280;32541;46.298;11.506;2023-04-06T03:01:08;89390.72;;;-1.21;71.73
46782;BME280;32541;46.298;11.506;2023-04-06T03:03:33;89397.72;;;-1.31;71.67
46782;BME280;32541;46.298;11.506;2023-04-06T03:05:59;89393.63;;;-1.38;72.19
46782;BME280;32541;46.298;11.506;2023-04-06T03:08:25;89391.44;;;-1.21;71.72
46782;BME280;32541;46.298;11.506;2023-04-06T03:10:50;89396.78;;;-1.34;72.01
46782;BME280;32541;46.298;11.506;2023-04-06T03:13:16;89400.25;;;-1.57;72.26
46782;BME280;32541;46.298;11.506;2023-04-06T03:15:41;89395.88;;;-1.60;72.64
46782;BME280;32541;46.298;11.506;2023-04-06T03:18:07;89395.56;;;-1.57;72.72
46782;BME280;32541;46.298;11.506;2023-04-06T03:20:32;89399.06;;;-1.62;72.35
46782;BME280;32541;46.298;11.506;2023-04-06T03:22:58;89405.19;;;-1.61;72.35
46782;BME280;32541;46.298;11.506;2023-04-06T03:25:23;89407.28;;;-1.54;71.76
46782;BME280;32541;46.298;11.506;2023-04-06T03:27:49;89408.09;;;-1.59;73.39
46782;BME280;32541;46.298;11.506;2023-04-06T03:30:15;89403.66;;;-1.57;74.09
46782;BME280;32541;46.298;11.506;2023-04-06T03:32:45;89396.38;;;-1.62;73.94
46782;BME280;32541;46.298;11.506;2023-04-06T03:35:10;89406.34;;;-1.57;73.57
46782;BME280;32541;46.298;11.506;2023-04-06T03:37:36;89404.59;;;-1.54;73.11
46782;BME280;32541;46.298;11.506;2023-04-06T03:40:01;89408.97;;;-1.51;72.38
46782;BME280;32541;46.298;11.506;2023-04-06T03:42:27;89405.91;;;-1.61;72.41
46782;BME280;32541;46.298;11.506;2023-04-06T03:44:53;89407.50;;;-1.71;72.35
46782;BME280;32541;46.298;11.506;2023-04-06T03:47:18;89402.31;;;-1.69;72.17
46782;BME280;32541;46.298;11.506;2023-04-06T03:49:44;89409.31;;;-1.79;72.18
46782;BME280;32541;46.298;11.506;2023-04-06T03:52:10;89410.53;;;-1.80;72.51
46782;BME280;32541;46.298;11.506;2023-04-06T03:54:35;89411.81;;;-1.87;72.58
46782;BME280;32541;46.298;11.506;2023-04-06T03:57:01;89410.81;;;-1.84;72.86
46782;BME280;32541;46.298;11.506;2023-04-06T03:59:26;89416.03;;;-1.91;72.93
46782;BME280;32541;46.298;11.506;2023-04-06T04:01:52;89406.72;;;-1.90;73.43
46782;BME280;32541;46.298;11.506;2023-04-06T04:04:17;89414.34;;;-1.94;73.17
46782;BME280;32541;46.298;11.506;2023-04-06T04:06:43;89408.84;;;-2.07;73.30
46782;BME280;32541;46.298;11.506;2023-04-06T04:09:09;89413.69;;;-2.00;73.21
46782;BME280;32541;46.298;11.506;2023-04-06T04:11:34;89406.38;;;-2.05;73.28
46782;BME280;32541;46.298;11.506;2023-04-06T04:14:00;89414.22;;;-2.07;73.44
46782;BME280;32541;46.298;11.506;2023-04-06T04:16:25;89414.16;;;-2.02;73.63
46782;BME280;32541;46.298;11.506;2023-04-06T04:18:50;89416.59;;;-1.98;73.43
46782;BME280;32541;46.298;11.506;2023-04-06T04:21:16;89421.53;;;-2.02;73.16
46782;BME280;32541;46.298;11.506;2023-04-06T04:23:41;89422.56;;;-2.05;73.50
46782;BME280;32541;46.298;11.506;2023-04-06T04:26:07;89424.00;;;-2.04;73.72
46782;BME280;32541;46.298;11.506;2023-04-06T04:28:32;89417.59;;;-2.01;73.72
46782;BME280;32541;46.298;11.506;2023-04-06T04:30:57;89415.38;;;-1.97;73.52
46782;BME280;32541;46.298;11.506;2023-04-06T04:33:23;89419.47;;;-1.91;73.08
46782;BME280;32541;46.298;11.506;2023-04-06T04:35:48;89424.78;;;-1.85;72.95
46782;BME280;32541;46.298;11.506;2023-04-06T04:38:14;89423.66;;;-1.95;73.18
46782;BME280;32541;46.298;11.506;2023-04-06T04:40:40;89421.69;;;-1.95;73.35
46782;BME280;32541;46.298;11.506;2023-04-06T04:43:05;89424.50;;;-2.06;73.52
46782;BME280;32541;46.298;11.506;2023-04-06T04:45:31;89421.63;;;-2.13;73.76
46782;BME280;32541;46.298;11.506;2023-04-06T04:47:56;89422.56;;;-2.05;73.69
46782;BME280;32541;46.298;11.506;2023-04-06T04:50:22;89427.25;;;-2.11;73.82
46782;BME280;32541;46.298;11.506;2023-04-06T04:52:47;89421.41;;;-2.15;73.83
46782;BME280;32541;46.298;11.506;2023-04-06T04:55:13;89424.84;;;-2.15;74.08
46782;BME280;32541;46.298;11.506;2023-04-06T04:57:39;89430.16;;;-2.09;74.51
46782;BME280;32541;46.298;11.506;2023-04-06T05:00:05;89433.72;;;-2.26;75.53
46782;BME280;32541;46.298;11.506;2023-04-06T05:02:30;89427.41;;;-2.28;75.61
46782;BME280;32541;46.298;11.506;2023-04-06T05:04:56;89431.34;;;-2.29;76.11
46782;BME280;32541;46.298;11.506;2023-04-06T05:07:21;89431.97;;;-2.17;75.54
46782;BME280;32541;46.298;11.506;2023-04-06T05:09:47;89435.41;;;-2.22;75.50
46782;BME280;32541;46.298;11.506;2023-04-06T05:12:13;89430.75;;;-2.22;75.81
46782;BME280;32541;46.298;11.506;2023-04-06T05:14:38;89424.66;;;-2.22;75.98
46782;BME280;32541;46.298;11.506;2023-04-06T05:17:03;89424.22;;;-2.27;76.15
46782;BME280;32541;46.298;11.506;2023-04-06T05:19:29;89431.28;;;-2.23;75.73
46782;BME280;32541;46.298;11.506;2023-04-06T05:21:55;89431.72;;;-2.19;75.33
46782;BME280;32541;46.298;11.506;2023-04-06T05:24:21;89432.97;;;-2.20;75.37
46782;BME280;32541;46.298;11.506;2023-04-06T05:26:47;89424.66;;;-2.22;75.54
46782;BME280;32541;46.298;11.506;2023-04-06T05:29:13;89432.88;;;-2.09;75.45
46782;BME280;32541;46.298;11.506;2023-04-06T05:31:38;89435.09;;;-2.13;75.11
46782;BME280;32541;46.298;11.506;2023-04-06T05:34:04;89436.78;;;-2.10;74.98
46782;BME280;32541;46.298;11.506;2023-04-06T05:36:30;89433.50;;;-1.98;74.51
46782;BME280;32541;46.298;11.506;2023-04-06T05:38:57;89439.88;;;-2.01;74.24
46782;BME280;32541;46.298;11.506;2023-04-06T05:41:23;89434.34;;;-2.08;74.80
46782;BME280;32541;46.298;11.506;2023-04-06T05:43:49;89440.47;;;-2.13;74.93
46782;BME280;32541;46.298;11.506;2023-04-06T05:46:14;89432.13;;;-2.10;75.04
46782;BME280;32541;46.298;11.506;2023-04-06T05:48:39;89436.03;;;-2.05;75.04
46782;BME280;32541;46.298;11.506;2023-04-06T05:51:05;89443.81;;;-2.02;75.57
46782;BME280;32541;46.298;11.506;2023-04-06T05:53:31;89441.78;;;-1.96;76.32
46782;BME280;32541;46.298;11.506;2023-04-06T05:55:57;89441.84;;;-2.01;75.21
46782;BME280;32541;46.298;11.506;2023-04-06T05:58:22;89449.91;;;-2.01;75.30
46782;BME280;32541;46.298;11.506;2023-04-06T06:00:48;89445.53;;;-2.04;75.22
46782;BME280;32541;46.298;11.506;2023-04-06T06:03:13;89452.41;;;-2.03;75.15
46782;BME280;32541;46.298;11.506;2023-04-06T06:05:40;89452.13;;;-2.00;75.14
46782;BME280;32541;46.298;11.506;2023-04-06T06:08:05;89455.78;;;-1.97;75.04
46782;BME280;32541;46.298;11.506;2023-04-06T06:10:31;89455.25;;;-1.96;74.93
46782;BME280;32541;46.298;11.506;2023-04-06T06:12:57;89452.69;;;-1.83;74.57
46782;BME280;32541;46.298;11.506;2023-04-06T06:15:22;89458.34;;;-1.86;74.94
46782;BME280;32541;46.298;11.506;2023-04-06T06:17:47;89449.50;;;-1.81;74.30
46782;BME280;32541;46.298;11.506;2023-04-06T06:20:13;89446.28;;;-1.80;74.76
46782;BME280;32541;46.298;11.506;2023-04-06T06:22:38;89450.88;;;-1.75;74.45
46782;BME280;32541;46.298;11.506;2023-04-06T06:25:05;89450.16;;;-1.75;74.39
46782;BME280;32541;46.298;11.506;2023-04-06T06:27:31;89451.06;;;-1.67;74.58
46782;BME280;32541;46.298;11.506;2023-04-06T06:29:56;89441.72;;;-1.66;74.71
46782;BME280;32541;46.298;11.506;2023-04-06T06:32:21;89449.53;;;-1.62;74.86
46782;BME280;32541;46.298;11.506;2023-04-06T06:34:47;89446.22;;;-1.50;74.62
46782;BME280;32541;46.298;11.506;2023-04-06T06:37:12;89434.03;;;-1.56;74.62
46782;BME280;32541;46.298;11.506;2023-04-06T06:39:38;89439.22;;;-1.58;74.73
46782;BME280;32541;46.298;11.506;2023-04-06T06:42:03;89434.03;;;-1.56;74.31
46782;BME280;32541;46.298;11.506;2023-04-06T06:44:29;89442.97;;;-1.43;74.56
46782;BME280;32541;46.298;11.506;2023-04-06T06:46:54;89441.97;;;-1.21;74.02
46782;BME280;32541;46.298;11.506;2023-04-06T06:49:20;89443.88;;;-1.16;74.22
46782;BME280;32541;46.298;11.506;2023-04-06T06:51:45;89446.63;;;-1.22;74.46
46782;BME280;32541;46.298;11.506;2023-04-06T06:54:11;89451.63;;;-1.07;74.30
46782;BME280;32541;46.298;11.506;2023-04-06T06:56:37;89443.44;;;-0.83;73.59
46782;BME280;32541;46.298;11.506;2023-04-06T06:59:03;89442.94;;;-0.81;73.53
46782;BME280;32541;46.298;11.506;2023-04-06T07:01:29;89440.78;;;-0.51;72.85
46782;BME280;32541;46.298;11.506;2023-04-06T07:03:54;89439.72;;;-0.29;72.02
46782;BME280;32541;46.298;11.506;2023-04-06T07:06:20;89449.63;;;-0.19;71.94
46782;BME280;32541;46.298;11.506;2023-04-06T07:08:46;89444.09;;;0.06;71.80
46782;BME280;32541;46.298;11.506;2023-04-06T07:11:11;89437.13;;;0.36;70.85
46782;BME280;32541;46.298;11.506;2023-04-06T07:13:37;89431.00;;;0.75;70.49
46782;BME280;32541;46.298;11.506;2023-04-06T07:16:02;89428.50;;;1.37;68.61
46782;BME280;32541;46.298;11.506;2023-04-06T07:18:28;89428.00;;;1.93;67.09
46782;BME280;32541;46.298;11.506;2023-04-06T07:20:53;89432.72;;;2.42;64.92
46782;BME280;32541;46.298;11.506;2023-04-06T07:23:19;89428.56;;;2.97;63.43
46782;BME280;32541;46.298;11.506;2023-04-06T07:25:44;89420.94;;;3.31;61.28
46782;BME280;32541;46.298;11.506;2023-04-06T07:28:10;89415.31;;;3.88;58.42
46782;BME280;32541;46.298;11.506;2023-04-06T07:30:37;89416.25;;;4.13;57.91
46782;BME280;32541;46.298;11.506;2023-04-06T07:33:03;89422.44;;;4.21;56.56
46782;BME280;32541;46.298;11.506;2023-04-06T07:35:29;89412.28;;;4.52;56.72
46782;BME280;32541;46.298;11.506;2023-04-06T07:37:55;89414.78;;;4.88;56.54
46782;BME280;32541;46.298;11.506;2023-04-06T07:40:21;89412.84;;;5.36;55.02
46782;BME280;32541;46.298;11.506;2023-04-06T07:42:46;89415.22;;;5.79;52.07
46782;BME280;32541;46.298;11.506;2023-04-06T07:45:12;89416.00;;;5.72;51.29
46782;BME280;32541;46.298;11.506;2023-04-06T07:47:37;89421.16;;;6.00;51.98
46782;BME280;32541;46.298;11.506;2023-04-06T07:50:03;89413.66;;;6.08;50.63
46782;BME280;32541;46.298;11.506;2023-04-06T07:52:29;89412.78;;;5.98;51.10
46782;BME280;32541;46.298;11.506;2023-04-06T07:54:57;89419.31;;;6.03;49.79
46782;BME280;32541;46.298;11.506;2023-04-06T07:57:23;89417.53;;;5.58;49.85
46782;BME280;32541;46.298;11.506;2023-04-06T07:59:48;89407.25;;;6.13;51.08
46782;BME280;32541;46.298;11.506;2023-04-06T08:02:13;89401.81;;;6.38;47.71
46782;BME280;32541;46.298;11.506;2023-04-06T08:04:40;89402.91;;;6.60;46.50
46782;BME280;32541;46.298;11.506;2023-04-06T08:07:05;89401.94;;;7.07;44.00
46782;BME280;32541;46.298;11.506;2023-04-06T08:09:32;89387.47;;;6.55;45.09
46782;BME280;32541;46.298;11.506;2023-04-06T08:11:57;89394.03;;;6.02;46.26
46782;BME280;32541;46.298;11.506;2023-04-06T08:14:23;89400.47;;;5.42;47.07
46782;BME280;32541;46.298;11.506;2023-04-06T08:16:48;89393.31;;;5.62;47.11
46782;BME280;32541;46.298;11.506;2023-04-06T08:19:13;89397.66;;;5.18;47.13
46782;BME280;32541;46.298;11.506;2023-04-06T08:21:42;89387.09;;;5.22;46.09
46782;BME280;32541;46.298;11.506;2023-04-06T08:24:08;89392.47;;;4.82;46.33
46782;BME280;32541;46.298;11.506;2023-04-06T08:26:33;89397.75;;;4.49;45.94
46782;BME280;32541;46.298;11.506;2023-04-06T08:28:59;89393.22;;;4.44;44.82
46782;BME280;32541;46.298;11.506;2023-04-06T08:31:24;89383.25;;;4.62;45.04
46782;BME280;32541;46.298;11.506;2023-04-06T08:33:51;89388.28;;;4.88;43.83
46782;BME280;32541;46.298;11.506;2023-04-06T08:36:16;89384.66;;;4.86;43.56
46782;BME280;32541;46.298;11.506;2023-04-06T08:38:45;89380.44;;;5.08;43.09
46782;BME280;32541;46.298;11.506;2023-04-06T08:41:11;89372.53;;;5.34;41.45
46782;BME280;32541;46.298;11.506;2023-04-06T08:43:48;89380.91;;;5.69;40.20
46782;BME280;32541;46.298;11.506;2023-04-06T08:46:15;89377.88;;;5.10;40.17
46782;BME280;32541;46.298;11.506;2023-04-06T08:48:42;89368.34;;;5.33;37.87
46782;BME280;32541;46.298;11.506;2023-04-06T08:51:11;89367.91;;;5.04;38.73
46782;BME280;32541;46.298;11.506;2023-04-06T08:53:37;89360.88;;;5.74;39.38
46782;BME280;32541;46.298;11.506;2023-04-06T08:56:03;89359.88;;;6.68;38.93
46782;BME280;32541;46.298;11.506;2023-04-06T08:58:34;89348.16;;;7.44;38.09
46782;BME280;32541;46.298;11.506;2023-04-06T09:01:03;89353.13;;;7.99;36.51
46782;BME280;32541;46.298;11.506;2023-04-06T09:03:35;89349.50;;;8.59;34.64
46782;BME280;32541;46.298;11.506;2023-04-06T09:06:02;89339.09;;;9.04;32.81
46782;BME280;32541;46.298;11.506;2023-04-06T09:08:29;89344.44;;;9.30;31.27
46782;BME280;32541;46.298;11.506;2023-04-06T09:10:55;89342.84;;;9.56;32.66
46782;BME280;32541;46.298;11.506;2023-04-06T09:13:20;89339.78;;;10.00;32.22
46782;BME280;32541;46.298;11.506;2023-04-06T09:15:46;89346.13;;;10.22;31.19
46782;BME280;32541;46.298;11.506;2023-04-06T09:18:11;89345.25;;;10.29;30.88
46782;BME280;32541;46.298;11.506;2023-04-06T09:20:37;89335.72;;;10.20;30.22
46782;BME280;32541;46.298;11.506;2023-04-06T09:23:02;89344.09;;;10.13;29.42
46782;BME280;32541;46.298;11.506;2023-04-06T09:25:28;89333.63;;;9.23;28.66
46782;BME280;32541;46.298;11.506;2023-04-06T09:27:59;89334.91;;;9.79;30.05
46782;BME280;32541;46.298;11.506;2023-04-06T09:30:25;89332.88;;;8.93;31.43
46782;BME280;32541;46.298;11.506;2023-04-06T09:32:53;89320.06;;;9.44;30.15
46782;BME280;32541;46.298;11.506;2023-04-06T09:35:20;89325.53;;;9.54;28.83
46782;BME280;32541;46.298;11.506;2023-04-06T09:37:50;89322.34;;;9.76;29.61
46782;BME280;32541;46.298;11.506;2023-04-06T09:40:17;89322.88;;;10.03;30.09
46782;BME280;32541;46.298;11.506;2023-04-06T09:42:48;89314.47;;;10.01;30.71
46782;BME280;32541;46.298;11.506;2023-04-06T09:45:17;89302.03;;;10.20;29.81
46782;BME280;32541;46.298;11.506;2023-04-06T09:47:43;89313.22;;;9.83;30.61
46782;BME280;32541;46.298;11.506;2023-04-06T09:50:11;89309.81;;;10.33;31.64
46782;BME280;32541;46.298;11.506;2023-04-06T09:52:43;89297.78;;;10.69;30.74
46782;BME280;32541;46.298;11.506;2023-04-06T09:55:10;89298.72;;;10.83;29.67
46782;BME280;32541;46.298;11.506;2023-04-06T09:58:01;89298.28;;;11.07;28.58
46782;BME280;32541;46.298;11.506;2023-04-06T10:00:32;89300.09;;;11.14;27.96
46782;BME280;32541;46.298;11.506;2023-04-06T10:05:36;89285.72;;;11.04;29.28
46782;BME280;32541;46.298;11.506;2023-04-06T10:08:08;89293.75;;;10.60;27.34
46782;BME280;32541;46.298;11.506;2023-04-06T10:10:34;89285.66;;;10.62;28.51
46782;BME280;32541;46.298;11.506;2023-04-06T10:13:00;89288.03;;;10.77;29.70
46782;BME280;32541;46.298;11.506;2023-04-06T10:15:28;89273.91;;;10.92;28.17
46782;BME280;32541;46.298;11.506;2023-04-06T10:17:54;89274.91;;;10.66;28.78
46782;BME280;32541;46.298;11.506;2023-04-06T10:23:02;89270.50;;;11.03;28.59
46782;BME280;32541;46.298;11.506;2023-04-06T10:25:32;89267.22;;;10.74;29.47
46782;BME280;32541;46.298;11.506;2023-04-06T10:28:10;89271.53;;;10.77;29.23
46782;BME280;32541;46.298;11.506;2023-04-06T10:30:42;89260.94;;;10.83;30.07
46782;BME280;32541;46.298;11.506;2023-04-06T10:33:19;89272.25;;;10.78;29.46
46782;BME280;32541;46.298;11.506;2023-04-06T10:35:45;89260.94;;;11.04;28.80
46782;BME280;32541;46.298;11.506;2023-04-06T10:38:10;89256.53;;;11.11;29.42
46782;BME280;32541;46.298;11.506;2023-04-06T10:40:40;89264.06;;;10.68;28.66
46782;BME280;32541;46.298;11.506;2023-04-06T10:43:11;89263.81;;;10.85;28.55
46782;BME280;32541;46.298;11.506;2023-04-06T10:45:38;89270.41;;;10.71;28.23
46782;BME280;32541;46.298;11.506;2023-04-06T10:48:17;89257.94;;;11.00;28.87
46782;BME280;32541;46.298;11.506;2023-04-06T10:50:50;89262.25;;;11.25;29.06
46782;BME280;32541;46.298;11.506;2023-04-06T10:53:22;89255.78;;;11.53;28.51
46782;BME280;32541;46.298;11.506;2023-04-06T10:55:50;89259.22;;;10.99;27.85
46782;BME280;32541;46.298;11.506;2023-04-06T10:58:16;89273.38;;;11.05;28.25
46782;BME280;32541;46.298;11.506;2023-04-06T11:00:48;89262.88;;;10.71;27.87
46782;BME280;32541;46.298;11.506;2023-04-06T11:03:14;89251.94;;;10.62;27.80
46782;BME280;32541;46.298;11.506;2023-04-06T11:05:47;89265.56;;;10.59;28.42
46782;BME280;32541;46.298;11.506;2023-04-06T11:08:27;89261.34;;;10.89;29.23
46782;BME280;32541;46.298;11.506;2023-04-06T11:11:07;89255.22;;;10.91;29.40
46782;BME280;32541;46.298;11.506;2023-04-06T11:13:41;89252.28;;;10.77;28.14
46782;BME280;32541;46.298;11.506;2023-04-06T11:16:33;89242.97;;;10.82;26.86
46782;BME280;32541;46.298;11.506;2023-04-06T11:19:00;89243.50;;;11.11;28.34
46782;BME280;32541;46.298;11.506;2023-04-06T11:29:20;89230.78;;;11.28;28.08
46782;BME280;32541;46.298;11.506;2023-04-06T11:31:51;89230.25;;;11.74;28.43
46782;BME280;32541;46.298;11.506;2023-04-06T11:34:22;89226.09;;;11.84;26.94
46782;BME280;32541;46.298;11.506;2023-04-06T11:36:49;89229.00;;;11.65;27.56
46782;BME280;32541;46.298;11.506;2023-04-06T11:39:20;89222.19;;;11.33;27.81
46782;BME280;32541;46.298;11.506;2023-04-06T11:41:50;89221.69;;;11.25;29.14
46782;BME280;32541;46.298;11.506;2023-04-06T11:44:30;89216.28;;;12.04;28.93
46782;BME280;32541;46.298;11.506;2023-04-06T11:46:57;89213.06;;;12.19;28.02
46782;BME280;32541;46.298;11.506;2023-04-06T11:49:29;89218.59;;;12.19;26.49
46782;BME280;32541;46.298;11.506;2023-04-06T11:51:56;89207.31;;;12.27;25.95
46782;BME280;32541;46.298;11.506;2023-04-06T11:54:36;89212.81;;;12.73;28.66
46782;BME280;32541;46.298;11.506;2023-04-06T11:57:03;89215.81;;;12.66;26.33
46782;BME280;32541;46.298;11.506;2023-04-06T11:59:30;89212.06;;;12.96;25.93
46782;BME280;32541;46.298;11.506;2023-04-06T12:01:57;89200.50;;;12.40;25.32
46782;BME280;32541;46.298;11.506;2023-04-06T12:04:23;89197.72;;;12.40;26.69
46782;BME280;32541;46.298;11.506;2023-04-06T12:06:48;89192.63;;;12.94;26.17
46782;BME280;32541;46.298;11.506;2023-04-06T12:09:14;89201.97;;;12.89;25.97
46782;BME280;32541;46.298;11.506;2023-04-06T12:11:40;89193.75;;;12.66;25.32
46782;BME280;32541;46.298;11.506;2023-04-06T12:14:06;89191.38;;;12.49;25.22
46782;BME280;32541;46.298;11.506;2023-04-06T12:16:33;89190.53;;;12.58;27.00
46782;BME280;32541;46.298;11.506;2023-04-06T12:18:59;89187.88;;;12.71;26.23
46782;BME280;32541;46.298;11.506;2023-04-06T12:21:27;89185.94;;;12.74;26.30
46782;BME280;32541;46.298;11.506;2023-04-06T12:23:53;89187.03;;;12.69;25.13
46782;BME280;32541;46.298;11.506;2023-04-06T12:26:18;89188.81;;;12.76;25.62
46782;BME280;32541;46.298;11.506;2023-04-06T12:28:44;89178.97;;;12.85;25.96
46782;BME280;32541;46.298;11.506;2023-04-06T12:31:20;89175.13;;;12.78;25.69
46782;BME280;32541;46.298;11.506;2023-04-06T12:33:49;89168.34;;;13.04;24.36
46782;BME280;32541;46.298;11.506;2023-04-06T12:36:16;89166.22;;;13.03;25.11
46782;BME280;32541;46.298;11.506;2023-04-06T12:38:49;89159.19;;;13.25;26.10
46782;BME280;32541;46.298;11.506;2023-04-06T12:41:16;89159.84;;;13.37;26.26
46782;BME280;32541;46.298;11.506;2023-04-06T12:43:42;89171.19;;;13.29;25.28
46782;BME280;32541;46.298;11.506;2023-04-06T12:46:08;89156.13;;;12.96;25.26
46782;BME280;32541;46.298;11.506;2023-04-06T12:48:33;89158.03;;;13.05;25.15
46782;BME280;32541;46.298;11.506;2023-04-06T12:51:00;89166.00;;;12.87;24.96
46782;BME280;32541;46.298;11.506;2023-04-06T12:53:27;89166.25;;;12.91;24.62
46782;BME280;32541;46.298;11.506;2023-04-06T12:55:54;89170.06;;;12.86;25.20
46782;BME280;32541;46.298;11.506;2023-04-06T12:58:20;89180.22;;;12.47;25.40
46782;BME280;32541;46.298;11.506;2023-04-06T13:00:47;89169.69;;;12.32;26.84
46782;BME280;32541;46.298;11.506;2023-04-06T13:03:13;89164.53;;;12.49;26.35